Latest Weather Observations for Essendon Airport

IDV60901

Issued at 10:05 am EDT Friday 28 November 2014 (issued every 10 minutes, with the page automatically refreshed every 10 minutes)

About weather observations | Map of Melbourne area stations | Latest observations for Melbourne area | Other Formats
Station Details ID: 086038 Name: ESSENDON AIRPORT Lat: -37.73 Lon: 144.91 Height: 78.4 m
Data from the previous 72 hours. | See also: Recent months at Essendon Airport
Date/Time
EDT
Tmp

°C
App
Tmp
°C
Dew
Point
°C
Rel
Hum
%
Delta-T

°C
Wind Press
QNH
hPa
Press
MSL
hPa
Rain
since
9 am
mm
Dir
 
Spd
km/h
Gust
km/h
Spd
kts
Gust
kts
28/10:00am 14.6 12.8 9.4 71 2.7 ESE 9 15 5 8 1023.9 1023.8 0.0
28/09:30am 13.8 11.7 9.6 76 2.2 ESE 11 17 6 9 1024.0 1023.9 0.0
28/09:00am 13.5 11.0 9.7 78 1.9 ESE 13 15 7 8 1024.3 1024.2 0.0
28/08:30am 13.3 11.5 9.5 78 1.9 SE 9 13 5 7 1024.1 1024.0 0.0
28/08:00am 12.9 11.1 9.4 79 1.8 ESE 9 13 5 7 1024.4 1024.3 0.0
28/07:30am 12.7 10.9 9.3 80 1.7 SE 9 11 5 6 1023.9 1023.8 0.0
28/07:17am 12.7 10.9 9.5 81 1.6 SE 9 13 5 7 1023.7 1023.6 0.0
28/07:00am 12.5 11.1 9.5 82 1.5 SE 7 11 4 6 1023.7 1023.6 0.0
28/06:30am 12.2 11.1 9.8 85 1.2 ESE 6 7 3 4 1023.4 1023.3 0.0
28/06:00am 11.8 11.3 9.5 86 1.2 E 2 6 1 3 1023.2 1023.1 0.0
28/05:30am 11.6 10.3 9.3 86 1.2 ESE 6 7 3 4 1022.9 1022.8 0.0
28/05:00am 11.6 10.8 9.5 87 1.1 ESE 4 11 2 6 1022.6 1022.5 0.0
28/04:59am 11.6 11.1 9.5 87 1.1 ESE 2 11 1 6 1022.6 1022.5 0.0
28/04:30am 11.1 10.9 9.2 88 1.0 CALM 0 6 0 3 1022.2 1022.1 0.0
28/04:00am 10.8 10.2 8.9 88 0.9 SSE 2 6 1 3 1022.2 1022.1 0.0
28/03:49am 10.3 9.6 8.4 88 0.9 SSE 2 6 1 3 1022.2 1022.1 0.0
28/03:30am 10.4 9.3 8.3 87 1.0 SSE 4 6 2 3 1022.1 1022.0 0.0
28/03:28am 10.4 9.3 8.3 87 1.0 SSE 4 6 2 3 1022.1 1022.0 0.0
28/03:17am 10.3 8.7 8.2 87 1.0 SSE 6 7 3 4 1022.1 1022.0 0.0
28/03:00am 10.3 9.1 8.2 87 1.0 SE 4 6 2 3 1022.2 1022.1 0.0
28/02:30am 10.7 9.6 8.5 86 1.1 SSE 4 7 2 4 1022.4 1022.3 0.0
28/02:04am 10.6 9.0 8.2 85 1.2 SE 6 9 3 5 1022.7 1022.6 0.0
28/02:00am 10.8 9.3 8.4 85 1.2 ESE 6 11 3 6 1022.6 1022.5 0.0
28/01:30am 11.1 9.5 8.7 85 1.2 SE 7 13 4 7 1023.1 1023.0 0.0
28/01:00am 11.4 9.8 8.8 84 1.3 SSE 7 13 4 7 1023.5 1023.4 0.0
28/12:30am 10.8 9.0 8.0 83 1.4 SE 7 9 4 5 1023.9 1023.8 0.0
28/12:00am 11.7 8.9 8.7 82 1.5 SSE 13 19 7 10 1024.1 1024.0 0.0
 
Date/Time
EDT
Tmp

°C
App
Tmp
°C
Dew
Point
°C
Rel
Hum
%
Delta-T

°C
Wind Press
QNH
hPa
Press
MSL
hPa
Rain
since
9 am
mm
Dir
 
Spd
km/h
Gust
km/h
Spd
kts
Gust
kts
27/11:30pm 11.8 9.4 8.6 81 1.6 SSE 11 17 6 9 1024.4 1024.3 0.0
27/11:00pm 11.7 9.7 8.6 81 1.5 SSE 9 13 5 7 1024.4 1024.3 0.0
27/10:30pm 11.9 9.1 8.6 80 1.6 SE 13 17 7 9 1024.4 1024.3 0.0
27/10:00pm 12.8 9.7 8.7 76 2.0 S 15 22 8 12 1024.6 1024.5 0.0
27/09:30pm 13.2 10.1 8.9 75 2.2 S 15 24 8 13 1024.5 1024.4 0.0
27/09:00pm 13.6 9.5 8.7 72 2.5 S 20 28 11 15 1024.1 1024.0 0.0
27/08:30pm 13.9 9.8 8.7 71 2.6 S 20 28 11 15 1024.0 1023.9 0.0
27/08:00pm 14.4 9.1 8.4 67 3.0 S 26 33 14 18 1024.0 1023.9 0.0
27/07:30pm 15.0 9.8 8.7 66 3.2 S 26 33 14 18 1024.0 1023.9 0.0
27/07:00pm 15.6 10.0 8.6 63 3.6 S 28 35 15 19 1023.8 1023.7 0.0
27/06:30pm 16.1 10.5 8.8 62 3.8 S 28 35 15 19 1023.8 1023.7 0.0
27/06:00pm 16.8 11.5 9.7 63 3.7 S 28 37 15 20 1023.7 1023.6 0.0
27/05:30pm 17.3 11.6 9.7 61 4.0 SSW 30 43 16 23 1023.8 1023.7 0.0
27/05:00pm 17.0 11.2 9.4 61 4.0 S 30 39 16 21 1023.9 1023.8 0.0
27/04:30pm 17.2 11.8 9.4 60 4.1 S 28 39 15 21 1023.9 1023.8 0.0
27/04:00pm 17.6 12.1 9.0 57 4.5 S 28 41 15 22 1024.0 1023.9 0.0
27/03:30pm 17.8 12.7 9.2 57 4.5 S 26 37 14 20 1024.2 1024.1 0.0
27/03:00pm 17.5 12.2 8.4 55 4.7 S 26 37 14 20 1024.6 1024.5 0.0
27/02:30pm 17.6 12.2 8.2 54 4.8 S 26 35 14 19 1024.6 1024.5 0.0
27/02:00pm 18.1 13.8 9.2 56 4.6 S 22 35 12 19 1024.7 1024.6 0.0
27/01:30pm 17.5 13.3 8.4 55 4.7 SSW 20 32 11 17 1024.8 1024.7 0.0
27/01:00pm 16.7 12.0 7.9 56 4.4 S 22 30 12 16 1025.1 1025.1 0.0
27/12:30pm 16.6 11.5 7.8 56 4.4 S 24 35 13 19 1025.2 1025.2 0.0
27/12:00pm 16.7 12.4 7.9 56 4.4 SSW 20 30 11 16 1025.4 1025.4 0.0
27/11:30am 16.3 11.7 8.0 58 4.2 S 22 32 12 17 1025.7 1025.7 0.0
27/11:00am 15.9 11.0 7.1 56 4.3 S 22 37 12 20 1025.8 1025.8 0.0
27/10:30am 15.7 9.7 7.2 57 4.2 S 28 37 15 20 1025.9 1025.9 0.0
27/10:00am 14.8 9.8 6.6 58 4.0 S 22 32 12 17 1025.9 1025.9 0.0
27/09:30am 15.1 11.2 6.9 58 4.0 S 17 28 9 15 1026.0 1026.0 0.0
27/09:00am 13.8 8.7 6.2 60 3.6 S 22 33 12 18 1026.0 1026.0 0.0
27/08:30am 14.1 9.5 5.7 57 4.0 SSE 19 28 10 15 1025.9 1025.9 0.0
27/08:00am 13.5 8.8 6.1 61 3.5 SSE 20 30 11 16 1025.7 1025.7 0.0
27/07:30am 13.7 8.9 5.8 59 3.8 SSE 20 28 11 15 1025.3 1025.3 0.0
27/07:00am 12.9 9.6 6.3 64 3.1 S 13 19 7 10 1025.0 1025.0 0.0
27/06:30am 12.5 8.7 5.7 63 3.2 SE 15 24 8 13 1024.9 1024.8 0.0
27/06:00am 12.5 9.6 6.3 66 2.9 SE 11 15 6 8 1024.5 1024.4 0.0
27/05:30am 12.4 9.8 6.0 65 3.0 SSE 9 13 5 7 1024.2 1024.1 0.0
27/05:00am 12.5 9.1 5.9 64 3.1 S 13 19 7 10 1024.1 1024.0 0.0
27/04:30am 12.7 8.9 5.8 63 3.3 SSE 15 20 8 11 1023.9 1023.8 0.0
27/04:00am 12.9 9.6 6.3 64 3.1 SSE 13 17 7 9 1023.5 1023.4 0.0
27/03:30am 13.1 9.8 6.5 64 3.2 SE 13 20 7 11 1023.3 1023.2 0.0
27/03:00am 13.2 10.3 6.5 64 3.2 SE 11 17 6 9 1023.5 1023.4 0.0
27/02:30am 13.3 10.9 6.9 65 3.1 SE 9 13 5 7 1023.5 1023.4 0.0
27/02:00am 13.2 10.8 7.0 66 3.0 SE 9 11 5 6 1023.6 1023.5 0.0
27/01:30am 13.4 10.2 7.0 65 3.1 S 13 19 7 10 1023.8 1023.7 0.0
27/01:00am 13.2 9.9 6.3 63 3.3 S 13 17 7 9 1024.1 1024.0 0.0
27/12:30am 13.4 9.4 6.5 63 3.3 S 17 22 9 12 1024.4 1024.3 0.0
27/12:00am 13.6 8.7 6.9 64 3.2 S 22 30 12 16 1024.6 1024.5 0.0
 
Date/Time
EDT
Tmp

°C
App
Tmp
°C
Dew
Point
°C
Rel
Hum
%
Delta-T

°C
Wind Press
QNH
hPa
Press
MSL
hPa
Rain
since
9 am
mm
Dir
 
Spd
km/h
Gust
km/h
Spd
kts
Gust
kts
26/11:30pm 13.7 9.4 7.2 65 3.2 S 19 30 10 16 1024.5 1024.4 0.0
26/11:00pm 13.8 9.6 7.6 66 3.0 S 19 30 10 16 1024.5 1024.4 0.0
26/10:30pm 14.0 9.8 8.2 68 2.9 S 20 30 11 16 1024.4 1024.3 0.0
26/10:00pm 14.0 10.0 8.4 69 2.8 S 19 26 10 14 1024.2 1024.1 0.0
26/09:30pm 14.1 10.0 8.5 69 2.8 S 20 30 11 16 1023.8 1023.7 0.0
26/09:00pm 14.2 10.1 8.6 69 2.8 S 20 26 11 14 1023.7 1023.6 0.0
26/08:30pm 14.3 10.3 8.9 70 2.7 S 20 28 11 15 1023.4 1023.3 0.0
26/08:00pm 14.2 10.0 9.6 74 2.4 S 22 37 12 20 1023.3 1023.2 0.0
26/07:30pm 14.6 10.9 9.6 72 2.6 S 19 28 10 15 1023.0 1022.9 0.0
26/07:05pm 14.3 9.7 9.7 74 2.4 S 24 35 13 19 1022.9 1022.8 0.0
26/07:00pm 14.1 9.6 10.1 77 2.1 S 24 35 13 19 1022.9 1022.8 0.0
26/06:30pm 13.7 10.2 11.0 84 1.4 S 20 28 11 15 1022.5 1022.4 0.0
26/06:00pm 14.0 10.5 11.0 82 1.6 S 20 30 11 16 1022.2 1022.1 0.0
26/05:30pm 14.1 9.2 11.3 83 1.5 S 28 35 15 19 1022.1 1022.0 0.0
26/05:27pm 14.2 9.3 11.2 82 1.6 S 28 35 15 19 1022.1 1022.0 0.0
26/05:10pm 15.2 10.8 11.6 79 1.9 S 26 35 14 19 1022.0 1021.9 0.0
26/05:00pm 15.3 11.3 11.9 80 1.8 S 24 33 13 18 1022.0 1021.9 0.0
26/04:31pm 15.5 11.2 12.1 80 1.9 S 26 33 14 18 1021.9 1021.8 0.0
26/04:30pm 15.5 11.2 12.1 80 1.9 S 26 33 14 18 1021.9 1021.8 0.0
26/04:00pm 16.0 12.1 12.0 77 2.2 S 24 33 13 18 1021.8 1021.7 0.0
26/03:30pm 16.8 11.6 10.4 66 3.4 S 28 32 15 17 1021.6 1021.5 0.0
26/03:00pm 17.5 15.8 9.9 61 4.0 S 9 17 5 9 1021.5 1021.4 0.0
26/02:30pm 17.7 16.1 10.3 62 4.0 SE 9 17 5 9 1021.5 1021.4 0.0
26/02:00pm 17.5 15.4 9.7 60 4.1 S 11 19 6 10 1021.6 1021.5 0.0
26/01:30pm 17.3 15.2 9.7 61 4.0 SSE 11 19 6 10 1021.6 1021.5 0.0
26/01:00pm 17.4 15.2 9.3 59 4.2 S 11 19 6 10 1021.7 1021.6 0.0
26/12:30pm 17.5 15.7 9.4 59 4.2 SW 9 15 5 8 1021.7 1021.6 0.0
26/12:00pm 16.8 14.6 9.2 61 3.9 SSE 11 19 6 10 1021.7 1021.6 0.0
26/11:30am 16.2 13.8 8.7 61 3.8 SSW 11 20 6 11 1021.8 1021.7 0.0
26/11:00am 16.6 14.4 9.3 62 3.8 W 11 17 6 9 1021.8 1021.7 0.0
26/10:30am 15.7 12.2 8.9 64 3.5 SSW 17 20 9 11 1021.9 1021.8 0.0
26/10:00am 15.2 11.1 8.7 65 3.3 SSW 20 24 11 13 1021.8 1021.7 0.0
26/09:30am 14.6 11.4 8.3 66 3.2 WSW 15 24 8 13 1022.0 1021.9 0.0
26/09:00am 14.3 11.4 8.3 67 3.0 WSW 13 19 7 10 1021.9 1021.8 0.0
26/08:30am 13.2 10.2 7.6 69 2.8 W 13 15 7 8 1021.7 1021.6 0.0
26/08:00am 12.4 9.8 7.7 73 2.3 W 11 15 6 8 1021.4 1021.3 0.0
26/07:30am 11.8 8.4 7.7 76 2.0 W 15 20 8 11 1021.4 1021.3 0.0
26/07:00am 11.0 8.0 7.5 79 1.7 WNW 13 17 7 9 1021.0 1020.9 0.0
26/06:30am 10.6 7.6 7.7 82 1.4 WNW 13 17 7 9 1020.9 1020.8 0.0
26/06:00am 10.0 7.6 7.1 82 1.4 NW 9 13 5 7 1020.6 1020.5 0.0
26/05:30am 10.1 7.0 7.2 82 1.4 NW 13 15 7 8 1020.4 1020.3 0.0
26/05:00am 9.8 7.0 7.1 83 1.3 NW 11 13 6 7 1020.2 1020.1 0.0
26/04:30am 9.8 6.7 7.1 83 1.3 WNW 13 15 7 8 1020.2 1020.1 0.0
26/04:00am 9.8 6.6 6.9 82 1.4 WNW 13 15 7 8 1020.3 1020.2 0.0
26/03:30am 10.0 7.2 7.1 82 1.4 NW 11 15 6 8 1020.3 1020.2 0.0
26/03:00am 10.6 8.2 6.9 78 1.8 WNW 9 13 5 7 1020.3 1020.2 0.0
26/02:30am 10.6 8.2 6.9 78 1.8 WNW 9 11 5 6 1020.5 1020.4 0.0
26/02:00am 10.6 8.1 6.6 76 1.9 W 9 13 5 7 1020.7 1020.6 0.0
26/01:30am 11.4 8.5 6.7 73 2.2 W 11 13 6 7 1020.8 1020.7 0.0
26/01:00am 12.4 10.1 7.3 71 2.5 WSW 9 9 5 5 1021.2 1021.1 0.0
26/12:30am 13.3 10.6 7.3 67 2.9 WSW 11 13 6 7 1021.4 1021.3 0.0
26/12:00am 13.8 11.5 7.6 66 3.0 WSW 9 15 5 8 1021.7 1021.6 0.0
 
Date/Time
EDT
Tmp

°C
App
Tmp
°C
Dew
Point
°C
Rel
Hum
%
Delta-T

°C
Wind Press
QNH
hPa
Press
MSL
hPa
Rain
since
9 am
mm
Dir
 
Spd
km/h
Gust
km/h
Spd
kts
Gust
kts
25/11:30pm 13.8 10.7 7.3 65 3.2 SW 13 19 7 10 1021.7 1021.6 0.0
25/11:00pm 14.3 10.5 7.4 63 3.4 SW 17 20 9 11 1021.9 1021.8 0.0
25/10:30pm 14.7 10.3 7.5 62 3.6 SW 20 26 11 14 1021.9 1021.8 0.0
25/10:00pm 15.2 11.1 8.0 62 3.6 SW 19 28 10 15 1021.6 1021.5 0.0
25/09:30pm 15.0 12.1 9.6 70 2.8 S 15 24 8 13 1021.2 1021.1 0.0
25/09:00pm 14.9 10.7 9.9 72 2.6 SSE 22 30 12 16 1020.9 1020.8 0.0
25/08:30pm 14.9 10.7 9.9 72 2.6 SSE 22 30 12 16 1020.5 1020.4 0.0
25/08:00pm 15.5 11.8 10.1 70 2.8 SSE 20 30 11 16 1020.3 1020.2 0.0
25/07:30pm 15.6 11.5 10.2 70 2.8 S 22 32 12 17 1019.9 1019.8 0.0
25/07:00pm 16.3 11.8 10.2 67 3.2 S 24 33 13 18 1019.4 1019.3 0.0
25/06:30pm 17.2 13.1 10.1 63 3.8 S 22 30 12 16 1018.8 1018.7 0.0
25/06:00pm 17.1 11.8 10.0 63 3.8 S 28 35 15 19 1018.5 1018.4 0.0
25/05:32pm 18.0 12.6 9.4 57 4.5 S 28 46 15 25 1018.3 1018.2 0.0
25/05:30pm 18.3 12.0 9.1 55 4.8 S 32 46 17 25 1018.3 1018.2 0.0
25/05:00pm 21.8 16.8 6.5 37 7.8 WSW 22 37 12 20 1018.3 1018.2 0.0
25/04:30pm 20.3 14.4 5.9 39 7.2 SW 26 43 14 23 1018.4 1018.3 0.0
25/04:00pm 21.0 15.5 5.8 37 7.6 SW 24 33 13 18 1018.5 1018.4 0.0
25/03:30pm 21.5 15.9 7.0 39 7.4 WSW 26 54 14 29 1018.4 1018.3 0.0
25/03:00pm 20.3 13.7 4.4 35 7.7 W 28 39 15 21 1018.5 1018.4 0.0
25/02:30pm 19.9 12.6 5.5 39 7.1 WSW 33 43 18 23 1018.6 1018.5 0.0
25/02:00pm 19.9 13.4 4.8 37 7.3 W 28 37 15 20 1018.6 1018.5 0.0
25/01:30pm 19.2 13.0 6.3 43 6.4 WSW 28 41 15 22 1018.7 1018.6 0.0
25/01:26pm 19.2 14.6 6.7 44 6.3 SW 20 32 11 17 1018.6 1018.5 0.0
25/01:19pm 20.3 12.0 5.9 39 7.2 W 39 46 21 25 1018.6 1018.5 0.0
25/01:00pm 19.6 13.2 7.0 44 6.4 SW 30 39 16 21 1018.7 1018.6 0.0
25/12:30pm 18.2 13.8 6.4 46 5.9 WNW 19 33 10 18 1018.7 1018.6 0.0
25/12:00pm 18.5 13.6 6.7 46 5.9 W 22 33 12 18 1018.9 1018.8 0.0
25/11:30am 17.4 12.5 6.9 50 5.2 W 22 35 12 19 1019.0 1018.9 0.0
25/11:00am 16.4 11.2 7.1 54 4.6 W 24 33 13 18 1019.1 1019.0 0.0
25/10:30am 15.5 10.5 9.6 68 3.1 W 26 43 14 23 1019.1 1019.0 0.0

Latest Capital City Observations: Canberra | Sydney | Melbourne | Brisbane | Adelaide | Perth | Hobart | Darwin

Other Formats:

Comma delimited format used in spreadsheet applications
http://www.bom.gov.au/fwo/IDV60901/IDV60901.95866.axf

JavaScript Object Notation format (JSON) in row-major order
http://www.bom.gov.au/fwo/IDV60901/IDV60901.95866.json